Time;durP1;ratioP1;P1;durP2;ratioP2;P2;SDS_P1;SDS_P2;PMS_P1;PMS_P2;Temp;Humidity;BMP_temperature;BMP_pressure;BME280_temperature;BME280_humidity;BME280_pressure;Samples;Min_cycle;Max_cycle;Signal;HPM_P1;HPM_P2
2022/03/05 00:02:00;;;;;;;29.25;15.10;;;7.40;62.00;;;;;;6214362;23;20411;-79
2022/03/05 00:04:25;;;;;;;19.05;11.05;;;7.40;62.40;;;;;;6216065;23;20024;-79
2022/03/05 00:06:52;;;;;;;19.20;10.98;;;7.40;63.10;;;;;;6215694;23;20008;-79
2022/03/05 00:09:17;;;;;;;14.60;9.13;;;7.40;63.10;;;;;;6215731;23;20001;-79
2022/03/05 00:11:44;;;;;;;20.50;11.88;;;7.40;63.10;;;;;;6215595;23;20309;-79
2022/03/05 00:14:10;;;;;;;15.98;9.63;;;7.50;63.00;;;;;;6213822;23;20005;-79
2022/03/05 00:16:36;;;;;;;15.45;9.38;;;7.40;63.00;;;;;;6213758;23;20012;-79
2022/03/05 00:19:02;;;;;;;18.85;9.85;;;7.40;62.60;;;;;;6215118;23;20310;-79
2022/03/05 00:21:28;;;;;;;19.33;10.00;;;7.40;63.00;;;;;;6215485;23;20484;-79
2022/03/05 00:23:54;;;;;;;20.38;8.93;;;7.40;63.10;;;;;;6215569;23;20027;-79
2022/03/05 00:26:20;;;;;;;21.63;12.68;;;7.40;62.60;;;;;;6214112;23;20039;-79
2022/03/05 00:28:45;;;;;;;16.35;9.65;;;7.50;63.30;;;;;;6215464;23;20501;-79
2022/03/05 00:31:11;;;;;;;26.15;13.52;;;7.40;63.30;;;;;;6214166;23;20091;-79
2022/03/05 00:33:37;;;;;;;27.20;15.50;;;7.40;62.80;;;;;;6215392;23;20008;-79
2022/03/05 00:36:03;;;;;;;18.25;11.13;;;7.40;62.90;;;;;;6215471;23;20010;-79
2022/03/05 00:38:29;;;;;;;17.70;9.60;;;7.40;63.10;;;;;;6215637;23;20001;-79
2022/03/05 00:40:55;;;;;;;16.50;9.95;;;7.40;62.40;;;;;;6215507;23;20019;-79
2022/03/05 00:43:20;;;;;;;16.33;8.32;;;7.30;61.60;;;;;;6215370;23;20001;-79
2022/03/05 00:45:46;;;;;;;15.75;9.07;;;7.30;62.00;;;;;;6215653;23;20011;-79
2022/03/05 00:48:12;;;;;;;15.38;8.90;;;7.30;61.80;;;;;;6215597;23;20451;-79
2022/03/05 00:50:39;;;;;;;16.95;9.50;;;7.30;61.50;;;;;;6213925;23;20008;-79
2022/03/05 00:53:05;;;;;;;14.02;8.23;;;7.30;61.80;;;;;;6215534;23;20364;-79
2022/03/05 00:55:31;;;;;;;14.30;9.40;;;7.30;61.70;;;;;;6215487;23;20517;-79
2022/03/05 00:57:57;;;;;;;15.30;9.70;;;7.30;60.80;;;;;;6215459;23;20024;-79
2022/03/05 01:00:23;;;;;;;14.43;8.65;;;7.30;61.40;;;;;;6215614;23;20333;-79
2022/03/05 01:02:48;;;;;;;16.48;8.80;;;7.30;61.20;;;;;;6215542;23;19996;-79
2022/03/05 01:05:14;;;;;;;15.93;9.18;;;7.30;61.50;;;;;;6215501;23;20080;-79
2022/03/05 01:07:40;;;;;;;15.45;8.60;;;7.30;61.40;;;;;;6215453;23;20007;-79
2022/03/05 01:10:06;;;;;;;13.98;9.15;;;7.20;61.50;;;;;;6215495;23;20072;-79
2022/03/05 01:12:32;;;;;;;14.65;9.55;;;7.20;62.30;;;;;;6215420;23;20008;-79
2022/03/05 01:14:58;;;;;;;15.35;9.25;;;7.20;63.00;;;;;;6215333;23;20068;-79
2022/03/05 01:17:24;;;;;;;16.20;9.57;;;7.20;62.00;;;;;;6213776;23;20454;-79
2022/03/05 01:19:49;;;;;;;16.05;9.00;;;7.20;62.00;;;;;;6215322;23;20126;-79
2022/03/05 01:22:15;;;;;;;15.35;8.75;;;7.20;61.10;;;;;;6213832;23;20345;-79
2022/03/05 01:24:41;;;;;;;23.52;10.05;;;7.20;61.30;;;;;;6215354;23;20000;-79
2022/03/05 01:27:06;;;;;;;17.80;10.30;;;7.10;61.60;;;;;;6215234;23;20001;-79
2022/03/05 01:29:32;;;;;;;20.08;10.85;;;7.10;61.30;;;;;;6215159;23;19996;-79
2022/03/05 01:31:58;;;;;;;22.65;10.98;;;7.10;60.40;;;;;;6215306;23;19997;-79
2022/03/05 01:34:24;;;;;;;18.70;10.43;;;7.00;60.00;;;;;;6215301;23;20047;-79
2022/03/05 01:36:49;;;;;;;17.35;10.02;;;7.00;59.90;;;;;;6215088;23;20414;-79
2022/03/05 01:39:16;;;;;;;20.10;10.30;;;7.00;60.00;;;;;;6214898;23;20001;-79
2022/03/05 01:41:45;;;;;;;22.90;11.63;;;7.00;60.30;;;;;;6213371;23;20401;-79
2022/03/05 01:44:12;;;;;;;22.15;10.77;;;7.00;60.40;;;;;;6213730;23;20005;-79
2022/03/05 01:46:39;;;;;;;20.80;10.35;;;7.00;59.80;;;;;;6215313;23;20031;-79
2022/03/05 01:49:11;;;;;;;21.35;11.02;;;7.00;59.60;;;;;;6213672;23;20012;-79
2022/03/05 01:51:37;;;;;;;23.02;11.40;;;7.00;59.70;;;;;;6213657;23;20011;-79
2022/03/05 01:54:03;;;;;;;21.27;11.93;;;6.90;59.80;;;;;;6214947;23;20345;-78
2022/03/05 01:56:30;;;;;;;20.63;11.75;;;7.00;59.90;;;;;;6216853;23;20000;-79
2022/03/05 01:58:55;;;;;;;22.23;11.57;;;7.00;60.00;;;;;;6217252;23;20076;-79
2022/03/05 02:01:24;;;;;;;25.27;11.77;;;7.00;60.30;;;;;;6215640;23;20032;-79
2022/03/05 02:03:51;;;;;;;24.80;12.00;;;7.00;60.60;;;;;;6215734;23;20000;-79
2022/03/05 02:06:17;;;;;;;25.35;11.50;;;6.90;60.50;;;;;;6215723;23;20654;-79
2022/03/05 02:08:43;;;;;;;26.25;12.13;;;6.90;61.00;;;;;;6216902;23;20004;-79
2022/03/05 02:11:09;;;;;;;21.83;11.98;;;6.90;61.50;;;;;;6217205;23;20313;-79
2022/03/05 02:13:36;;;;;;;26.73;12.45;;;6.90;61.30;;;;;;6215677;23;20019;-79
2022/03/05 02:16:02;;;;;;;21.75;11.82;;;6.90;61.00;;;;;;6217205;23;20027;-78
2022/03/05 02:18:28;;;;;;;22.55;12.48;;;6.90;61.30;;;;;;6217084;23;20008;-79
2022/03/05 02:20:55;;;;;;;20.77;12.88;;;6.90;61.00;;;;;;6217023;23;20058;-79
2022/03/05 02:23:21;;;;;;;21.23;12.15;;;6.90;60.60;;;;;;6216944;23;20333;-79
2022/03/05 02:25:58;;;;;;;24.25;12.00;;;6.90;61.10;;;;;;6216460;23;20058;-79
2022/03/05 02:28:26;;;;;;;24.42;12.43;;;6.90;62.00;;;;;;6214827;23;20396;-78
2022/03/05 02:30:52;;;;;;;26.75;12.70;;;6.90;61.80;;;;;;6214561;23;20005;-73
2022/03/05 02:33:18;;;;;;;25.38;12.80;;;6.90;62.10;;;;;;6215853;23;20011;-73
2022/03/05 02:35:44;;;;;;;22.95;12.95;;;6.90;61.50;;;;;;6215634;23;20405;-73
2022/03/05 02:38:15;;;;;;;24.42;12.38;;;6.90;61.60;;;;;;6215758;23;19996;-73
2022/03/05 02:40:41;;;;;;;22.40;13.07;;;6.80;62.20;;;;;;6215566;23;20548;-73
2022/03/05 02:43:09;;;;;;;24.20;12.77;;;6.90;62.80;;;;;;6215677;23;20027;-73
2022/03/05 02:45:35;;;;;;;26.20;12.60;;;6.80;63.00;;;;;;6215764;23;20047;-73
2022/03/05 02:48:02;;;;;;;28.08;14.13;;;6.80;63.00;;;;;;6215589;23;20011;-73
2022/03/05 02:50:28;;;;;;;26.15;13.18;;;6.80;62.70;;;;;;6215414;23;20028;-73
2022/03/05 02:52:55;;;;;;;27.27;13.13;;;6.80;61.40;;;;;;6213918;23;20032;-73
2022/03/05 02:55:20;;;;;;;23.42;13.00;;;6.80;61.70;;;;;;6215530;23;20007;-73
2022/03/05 02:57:46;;;;;;;21.88;13.45;;;6.80;61.80;;;;;;6214083;23;20083;-73
2022/03/05 03:00:12;;;;;;;27.65;12.77;;;6.80;62.20;;;;;;6213696;23;20495;-73
2022/03/05 03:02:39;;;;;;;25.15;14.05;;;6.70;63.30;;;;;;6213760;23;20001;-72
2022/03/05 03:05:06;;;;;;;25.02;12.82;;;6.70;64.50;;;;;;6215597;23;20008;-73
2022/03/05 03:07:31;;;;;;;28.35;14.10;;;6.70;65.70;;;;;;6213128;23;20429;-73
2022/03/05 03:09:58;;;;;;;24.33;12.93;;;6.60;65.30;;;;;;6215049;23;19997;-73
2022/03/05 03:12:25;;;;;;;23.42;13.27;;;6.50;65.70;;;;;;6215921;23;19996;-73
2022/03/05 03:14:51;;;;;;;25.88;13.75;;;6.50;65.40;;;;;;6214075;23;20000;-73
2022/03/05 03:17:17;;;;;;;26.98;13.55;;;6.60;65.30;;;;;;6213800;23;20054;-73
2022/03/05 03:19:43;;;;;;;24.25;12.98;;;6.60;65.10;;;;;;6216325;23;20422;-73
2022/03/05 03:22:09;;;;;;;26.13;13.57;;;6.50;65.30;;;;;;6215154;23;20001;-73
2022/03/05 03:24:35;;;;;;;30.58;14.45;;;6.50;65.50;;;;;;6215585;23;20419;-74
2022/03/05 03:27:01;;;;;;;26.23;13.80;;;6.50;65.00;;;;;;6211389;23;20040;-73
2022/03/05 03:29:27;;;;;;;32.42;14.82;;;6.50;64.20;;;;;;6214571;23;20421;-73
2022/03/05 03:31:52;;;;;;;28.52;14.35;;;6.40;64.70;;;;;;6214311;23;20059;-73
2022/03/05 03:34:18;;;;;;;29.35;14.65;;;6.40;64.70;;;;;;6215028;23;20015;-73
2022/03/05 03:36:45;;;;;;;27.92;14.93;;;6.40;64.60;;;;;;6214605;23;20005;-73
2022/03/05 03:39:10;;;;;;;29.00;15.10;;;6.40;65.30;;;;;;6215187;23;20107;-73
2022/03/05 03:41:36;;;;;;;34.08;15.85;;;6.40;65.10;;;;;;6215422;23;20091;-72
2022/03/05 03:44:02;;;;;;;32.28;15.32;;;6.30;64.80;;;;;;6213797;23;20005;-72
2022/03/05 03:46:28;;;;;;;32.72;16.00;;;6.20;65.80;;;;;;6214117;23;20007;-73
2022/03/05 03:48:54;;;;;;;30.88;14.68;;;6.20;66.40;;;;;;6215047;23;20005;-73
2022/03/05 03:51:19;;;;;;;30.75;15.15;;;6.20;66.30;;;;;;6214933;23;20008;-73
2022/03/05 03:53:46;;;;;;;33.90;16.27;;;6.20;66.00;;;;;;6214694;23;20008;-73
2022/03/05 03:56:13;;;;;;;36.38;16.33;;;6.20;66.30;;;;;;6215494;23;20011;-72
2022/03/05 03:58:39;;;;;;;34.47;17.35;;;6.20;66.80;;;;;;6214854;23;20409;-73
2022/03/05 04:01:04;;;;;;;31.35;16.23;;;6.20;66.70;;;;;;6215612;23;20004;-73
2022/03/05 04:03:30;;;;;;;33.85;16.58;;;6.20;65.90;;;;;;6215752;23;20023;-73
2022/03/05 04:05:56;;;;;;;36.85;17.45;;;6.20;66.70;;;;;;6215630;23;20392;-73
2022/03/05 04:11:07;;;;;;;34.33;16.50;;;6.00;67.10;;;;;;6215613;23;20008;-73
2022/03/05 04:13:33;;;;;;;37.35;16.50;;;5.90;67.50;;;;;;6215523;23;20004;-73
2022/03/05 04:15:58;;;;;;;37.28;17.70;;;5.80;68.00;;;;;;6215469;23;20070;-73
2022/03/05 04:18:24;;;;;;;38.13;18.23;;;5.80;68.40;;;;;;6215023;23;20001;-73
2022/03/05 04:20:50;;;;;;;43.67;19.52;;;5.80;69.00;;;;;;6215471;23;20004;-73
2022/03/05 04:23:16;;;;;;;39.75;18.05;;;5.80;70.50;;;;;;6213839;23;20005;-73
2022/03/05 04:25:42;;;;;;;41.45;18.73;;;5.80;71.00;;;;;;6212943;23;20001;-73
2022/03/05 04:28:08;;;;;;;37.58;17.98;;;5.80;71.00;;;;;;6215375;23;20059;-73
2022/03/05 04:30:34;;;;;;;30.02;16.38;;;5.80;70.80;;;;;;6215579;23;20001;-72
2022/03/05 04:33:00;;;;;;;27.35;13.68;;;5.80;71.20;;;;;;6215254;23;19996;-73
2022/03/05 04:35:26;;;;;;;23.33;13.23;;;5.80;71.30;;;;;;6213152;23;20012;-73
2022/03/05 04:37:51;;;;;;;24.30;12.77;;;5.90;70.70;;;;;;6214677;23;20139;-73
2022/03/05 04:40:18;;;;;;;22.27;12.35;;;5.90;70.50;;;;;;6213248;23;20019;-73
2022/03/05 04:42:44;;;;;;;22.80;12.18;;;5.80;70.20;;;;;;6215278;23;20048;-72
2022/03/05 04:45:10;;;;;;;26.48;12.13;;;5.80;70.00;;;;;;6214808;23;19996;-73
2022/03/05 04:47:37;;;;;;;21.98;12.45;;;5.80;70.50;;;;;;6215064;23;20001;-73
2022/03/05 04:50:06;;;;;;;24.35;13.18;;;5.80;70.30;;;;;;6214624;23;19997;-72
2022/03/05 04:52:33;;;;;;;22.20;11.57;;;5.80;69.40;;;;;;6213064;23;20008;-72
2022/03/05 04:54:58;;;;;;;26.27;11.52;;;5.70;69.10;;;;;;6215237;23;20021;-72
2022/03/05 04:57:24;;;;;;;21.40;11.35;;;5.80;69.60;;;;;;6215028;23;20059;-73
2022/03/05 04:59:51;;;;;;;24.02;12.05;;;5.70;69.30;;;;;;6213534;23;20055;-73
2022/03/05 05:02:17;;;;;;;20.70;10.88;;;5.70;69.50;;;;;;6215211;23;20437;-72
2022/03/05 05:04:43;;;;;;;23.40;12.00;;;5.60;69.70;;;;;;6213240;23;20083;-73
2022/03/05 05:07:09;;;;;;;23.60;12.30;;;5.60;69.80;;;;;;6215131;23;20011;-72
2022/03/05 05:09:35;;;;;;;22.63;11.55;;;5.60;70.10;;;;;;6213364;23;20087;-74
2022/03/05 05:12:00;;;;;;;28.60;12.68;;;5.60;70.30;;;;;;6215130;23;20001;-73
2022/03/05 05:14:26;;;;;;;21.35;11.15;;;5.50;70.30;;;;;;6214951;23;20065;-73
2022/03/05 05:16:52;;;;;;;23.23;11.82;;;5.50;70.30;;;;;;6214902;23;20001;-73
2022/03/05 05:19:30;;;;;;;21.95;12.10;;;5.50;70.50;;;;;;6214865;23;20432;-73
2022/03/05 05:21:57;;;;;;;22.88;11.75;;;5.50;70.40;;;;;;6214979;23;19996;-73
2022/03/05 05:24:24;;;;;;;23.05;11.52;;;5.50;70.20;;;;;;6214566;23;20329;-73
2022/03/05 05:26:50;;;;;;;20.70;12.38;;;5.40;70.40;;;;;;6215015;23;20425;-73
2022/03/05 05:29:16;;;;;;;22.73;12.07;;;5.30;70.80;;;;;;6213300;23;20047;-73
2022/03/05 05:31:42;;;;;;;24.02;12.60;;;5.30;71.40;;;;;;6214867;23;20001;-73
2022/03/05 05:34:07;;;;;;;23.33;12.82;;;5.20;71.70;;;;;;6214902;23;20001;-73
2022/03/05 05:36:33;;;;;;;24.63;12.40;;;5.10;71.90;;;;;;6213032;23;20009;-73
2022/03/05 05:38:59;;;;;;;25.77;12.60;;;5.10;72.20;;;;;;6214994;23;20051;-73
2022/03/05 05:41:25;;;;;;;24.80;13.38;;;5.10;72.20;;;;;;6212882;23;20017;-73
2022/03/05 05:43:50;;;;;;;25.92;13.02;;;5.10;72.40;;;;;;6214789;23;20028;-72
2022/03/05 05:46:16;;;;;;;28.80;13.07;;;5.10;72.60;;;;;;6213224;23;20043;-73
2022/03/05 05:48:42;;;;;;;23.55;12.30;;;5.10;72.70;;;;;;6213181;23;20004;-73
2022/03/05 05:51:08;;;;;;;25.52;12.32;;;5.10;73.10;;;;;;6213174;23;20012;-73
2022/03/05 05:53:34;;;;;;;24.58;13.77;;;5.00;73.30;;;;;;6214790;23;20016;-73
2022/03/05 05:56:00;;;;;;;24.92;13.65;;;5.00;73.80;;;;;;6214923;23;20439;-73
2022/03/05 05:58:25;;;;;;;24.50;12.48;;;5.00;74.10;;;;;;6213316;23;20011;-73
2022/03/05 06:00:51;;;;;;;22.65;13.05;;;5.00;73.70;;;;;;6214795;23;20004;-73
2022/03/05 06:03:17;;;;;;;25.17;13.88;;;5.00;73.80;;;;;;6214814;23;20054;-73
2022/03/05 06:05:43;;;;;;;25.27;13.93;;;4.90;73.90;;;;;;6213184;23;20060;-74
2022/03/05 06:08:08;;;;;;;28.20;14.07;;;5.00;74.00;;;;;;6213062;23;20091;-73
2022/03/05 06:10:34;;;;;;;25.70;13.80;;;5.00;73.90;;;;;;6214792;23;20009;-73
2022/03/05 06:13:00;;;;;;;25.05;13.27;;;5.00;73.80;;;;;;6214931;23;20001;-73
2022/03/05 06:15:25;;;;;;;25.42;13.32;;;5.00;73.80;;;;;;6214590;23;20004;-73
2022/03/05 06:17:54;;;;;;;27.83;14.25;;;5.00;73.80;;;;;;6214837;23;20498;-73
2022/03/05 06:20:21;;;;;;;23.60;13.32;;;5.10;74.50;;;;;;6215035;23;20020;-73
2022/03/05 06:22:47;;;;;;;28.98;14.77;;;5.10;74.00;;;;;;6214533;23;20047;-73
2022/03/05 06:25:12;;;;;;;25.75;14.27;;;5.00;74.10;;;;;;6214878;23;20004;-73
2022/03/05 06:27:38;;;;;;;27.02;13.90;;;5.10;74.10;;;;;;6214713;23;20409;-73
2022/03/05 06:30:04;;;;;;;26.50;14.45;;;5.10;74.00;;;;;;6213017;23;20032;-73
2022/03/05 06:32:30;;;;;;;24.55;14.50;;;5.10;73.80;;;;;;6214765;23;20078;-73
2022/03/05 06:34:56;;;;;;;27.52;14.63;;;5.10;73.60;;;;;;6214596;23;19997;-72
2022/03/05 06:37:23;;;;;;;25.27;14.55;;;5.20;73.50;;;;;;6214565;23;20004;-73
2022/03/05 06:39:48;;;;;;;27.40;14.25;;;5.20;73.30;;;;;;6214761;23;20004;-73
2022/03/05 06:42:15;;;;;;;28.98;14.82;;;5.30;73.40;;;;;;6216106;23;20012;-73
2022/03/05 06:44:41;;;;;;;24.80;13.75;;;5.30;73.40;;;;;;6216500;23;20076;-73
2022/03/05 06:47:07;;;;;;;29.42;13.77;;;5.40;73.50;;;;;;6216558;23;20008;-73
2022/03/05 06:49:33;;;;;;;26.63;14.15;;;5.50;73.70;;;;;;6216289;23;20005;-73
2022/03/05 06:51:59;;;;;;;22.95;12.77;;;5.50;73.50;;;;;;6214710;23;20337;-73
2022/03/05 06:54:25;;;;;;;24.98;12.65;;;5.50;73.40;;;;;;6216520;23;20000;-73
2022/03/05 06:56:52;;;;;;;28.33;15.38;;;5.50;72.80;;;;;;6216143;23;20000;-73
2022/03/05 06:59:17;;;;;;;30.42;14.20;;;5.50;72.80;;;;;;6215854;23;19997;-73
2022/03/05 07:01:43;;;;;;;28.90;14.07;;;5.60;72.60;;;;;;6215935;23;19993;-73
2022/03/05 07:04:09;;;;;;;28.33;14.27;;;5.60;72.50;;;;;;6215923;23;19997;-73
2022/03/05 07:06:37;;;;;;;22.77;13.30;;;5.70;72.60;;;;;;6216172;23;20439;-73
2022/03/05 07:09:03;;;;;;;27.20;14.10;;;5.70;72.40;;;;;;6216280;23;20005;-73
2022/03/05 07:11:29;;;;;;;26.60;13.65;;;5.70;72.20;;;;;;6214250;23;20325;-73
2022/03/05 07:13:55;;;;;;;26.13;13.18;;;5.70;72.00;;;;;;6216265;23;20364;-73
2022/03/05 07:16:21;;;;;;;27.73;13.93;;;5.80;71.80;;;;;;6216070;23;20000;-73
2022/03/05 07:18:47;;;;;;;26.27;13.15;;;5.80;71.70;;;;;;6214419;23;20055;-73
2022/03/05 07:21:13;;;;;;;24.35;12.57;;;5.80;71.50;;;;;;6216089;23;20409;-73
2022/03/05 07:23:39;;;;;;;26.42;13.20;;;5.80;71.50;;;;;;6216134;23;19997;-73
2022/03/05 07:26:05;;;;;;;25.90;13.90;;;5.80;71.40;;;;;;6216032;23;20076;-73
2022/03/05 07:28:32;;;;;;;22.65;12.73;;;5.90;71.50;;;;;;6216019;23;20036;-73
2022/03/05 07:30:58;;;;;;;27.38;14.15;;;6.00;71.60;;;;;;6216155;23;20005;-73
2022/03/05 07:33:24;;;;;;;28.45;13.77;;;6.00;72.00;;;;;;6216091;23;20380;-73
2022/03/05 07:35:49;;;;;;;27.73;13.20;;;6.10;71.80;;;;;;6215857;23;20009;-73
2022/03/05 07:38:15;;;;;;;25.48;13.25;;;6.20;72.00;;;;;;6214288;23;20005;-73
2022/03/05 07:40:41;;;;;;;26.35;12.30;;;6.20;71.50;;;;;;6215924;23;20016;-72
2022/03/05 07:43:07;;;;;;;25.98;13.25;;;6.20;71.30;;;;;;6215941;23;20047;-72
2022/03/05 07:45:32;;;;;;;27.35;14.23;;;6.30;71.40;;;;;;6215924;23;20455;-73
2022/03/05 07:47:58;;;;;;;27.13;13.07;;;6.30;70.90;;;;;;6215922;23;20083;-73
2022/03/05 07:50:24;;;;;;;29.73;15.57;;;6.30;70.60;;;;;;6214125;23;20009;-73
2022/03/05 07:52:50;;;;;;;28.13;14.45;;;6.40;70.50;;;;;;6215096;23;20005;-73
2022/03/05 07:55:16;;;;;;;29.35;13.55;;;6.40;70.40;;;;;;6216043;23;20004;-73
2022/03/05 07:57:41;;;;;;;30.23;13.57;;;6.40;71.20;;;;;;6213805;23;20000;-73
2022/03/05 08:00:08;;;;;;;32.83;15.85;;;6.50;70.70;;;;;;6215658;23;19996;-73
2022/03/05 08:02:33;;;;;;;24.27;11.82;;;6.50;69.70;;;;;;6214021;23;20005;-73
2022/03/05 08:05:00;;;;;;;28.88;14.55;;;6.50;68.20;;;;;;6215717;23;20032;-73
2022/03/05 08:07:26;;;;;;;27.33;13.07;;;6.60;69.30;;;;;;6216020;23;20005;-73
2022/03/05 08:09:51;;;;;;;19.50;9.73;;;6.60;65.30;;;;;;6214384;23;20463;-73
2022/03/05 08:12:17;;;;;;;20.73;10.70;;;6.60;64.60;;;;;;6212039;23;20001;-73
2022/03/05 08:14:44;;;;;;;18.05;10.38;;;6.70;64.00;;;;;;6213229;23;20145;-72
2022/03/05 08:17:11;;;;;;;20.60;10.88;;;6.70;64.80;;;;;;6213871;23;20027;-73
2022/03/05 08:19:37;;;;;;;19.52;9.88;;;6.70;63.80;;;;;;6214718;23;20004;-73
2022/03/05 08:22:03;;;;;;;14.85;9.07;;;6.70;64.30;;;;;;6214573;23;20351;-72
2022/03/05 08:24:29;;;;;;;16.65;9.10;;;6.80;64.40;;;;;;6214739;23;19996;-79
2022/03/05 08:26:55;;;;;;;16.38;8.95;;;6.80;64.50;;;;;;6215835;23;20332;-80
2022/03/05 08:29:20;;;;;;;16.35;8.57;;;6.80;63.80;;;;;;6215738;23;20007;-79
2022/03/05 08:31:46;;;;;;;20.17;10.32;;;6.80;63.70;;;;;;6214144;23;20008;-79
2022/03/05 08:34:12;;;;;;;14.63;8.88;;;6.90;65.00;;;;;;6215757;23;20329;-79
2022/03/05 08:36:37;;;;;;;18.67;8.88;;;6.90;64.10;;;;;;6214876;23;20000;-79
2022/03/05 08:39:03;;;;;;;18.05;9.20;;;6.90;62.40;;;;;;6215631;23;19996;-80
2022/03/05 08:41:29;;;;;;;18.15;9.18;;;6.90;63.70;;;;;;6215509;23;20013;-80
2022/03/05 08:43:55;;;;;;;15.20;9.07;;;7.00;63.70;;;;;;6215634;23;20007;-79
2022/03/05 08:46:20;;;;;;;18.75;9.20;;;7.00;64.10;;;;;;6215679;23;20003;-80
2022/03/05 08:48:46;;;;;;;19.25;8.75;;;7.10;63.60;;;;;;6215525;23;20345;-79
2022/03/05 08:51:12;;;;;;;16.63;8.95;;;7.10;63.40;;;;;;6215752;23;20005;-79
2022/03/05 08:53:38;;;;;;;12.32;8.40;;;7.20;62.60;;;;;;6215550;23;20007;-80
2022/03/05 08:56:04;;;;;;;15.60;9.15;;;7.20;63.10;;;;;;6215541;23;20009;-79
2022/03/05 08:58:30;;;;;;;15.30;8.38;;;7.20;61.50;;;;;;6215520;23;20051;-79
2022/03/05 09:00:59;;;;;;;15.02;8.52;;;7.30;62.40;;;;;;6213855;23;20004;-80
2022/03/05 09:03:25;;;;;;;14.18;7.90;;;7.40;62.20;;;;;;6215287;23;20027;-79
2022/03/05 09:05:51;;;;;;;13.25;7.90;;;7.50;60.80;;;;;;6215496;23;20079;-79
2022/03/05 09:08:17;;;;;;;16.23;8.43;;;7.50;60.10;;;;;;6213897;23;20043;-80
2022/03/05 09:10:43;;;;;;;13.98;8.85;;;7.50;60.00;;;;;;6212719;23;20000;-79
2022/03/05 09:13:09;;;;;;;15.55;8.75;;;7.50;59.90;;;;;;6212889;23;20004;-79
2022/03/05 09:15:34;;;;;;;18.77;9.52;;;7.50;59.40;;;;;;6209731;23;20326;-79
2022/03/05 09:18:00;;;;;;;16.45;9.30;;;7.40;59.30;;;;;;6211816;23;20001;-80
2022/03/05 09:20:26;;;;;;;16.67;9.32;;;7.50;59.90;;;;;;6207397;23;20001;-73
2022/03/05 09:22:52;;;;;;;16.60;8.85;;;7.60;60.70;;;;;;6210368;23;20037;-73
2022/03/05 09:25:18;;;;;;;17.88;8.98;;;7.60;59.70;;;;;;6204471;23;20001;-73
2022/03/05 09:27:45;;;;;;;16.83;9.57;;;7.70;60.50;;;;;;6211812;23;20088;-73
2022/03/05 09:30:11;;;;;;;14.32;8.15;;;7.80;61.70;;;;;;6208075;23;19997;-73
2022/03/05 09:32:37;;;;;;;17.38;8.40;;;7.80;59.40;;;;;;6210379;23;20004;-73
2022/03/05 09:35:03;;;;;;;15.90;8.65;;;7.80;58.40;;;;;;6207629;23;20380;-73
2022/03/05 09:37:30;;;;;;;15.30;8.52;;;7.90;58.60;;;;;;6210268;23;20001;-73
2022/03/05 09:39:57;;;;;;;21.02;9.25;;;8.00;59.10;;;;;;6207002;23;20459;-73
2022/03/05 09:42:23;;;;;;;15.93;8.52;;;8.00;59.10;;;;;;6209067;23;20008;-73
2022/03/05 09:44:49;;;;;;;15.65;9.15;;;8.00;59.10;;;;;;6205423;23;20019;-73
2022/03/05 09:47:16;;;;;;;22.48;9.38;;;8.00;58.30;;;;;;6210460;23;20083;-73
2022/03/05 09:49:42;;;;;;;17.95;9.30;;;7.90;58.00;;;;;;6206724;23;20014;-73
2022/03/05 09:52:08;;;;;;;19.10;9.63;;;7.90;58.40;;;;;;6210437;23;20054;-74
2022/03/05 09:54:35;;;;;;;16.90;8.63;;;7.90;57.40;;;;;;6205396;23;20091;-73
2022/03/05 09:57:01;;;;;;;18.80;9.65;;;7.90;57.30;;;;;;6208350;23;20083;-74
2022/03/05 09:59:27;;;;;;;14.68;8.93;;;8.00;58.20;;;;;;6208527;23;20024;-73
2022/03/05 10:01:53;;;;;;;17.27;8.85;;;8.00;58.00;;;;;;6210705;23;20680;-73
2022/03/05 10:04:23;;;;;;;16.52;9.30;;;7.90;57.40;;;;;;6207419;23;20011;-73
2022/03/05 10:07:07;;;;;;;17.38;9.85;;;8.00;58.50;;;;;;6211291;23;20004;-73
2022/03/05 10:09:33;;;;;;;18.25;10.00;;;7.90;57.30;;;;;;6206802;23;20004;-73
2022/03/05 10:11:58;;;;;;;20.58;9.85;;;7.90;57.50;;;;;;6211033;23;20005;-73
2022/03/05 10:14:24;;;;;;;18.90;10.02;;;8.00;57.30;;;;;;6207536;23;20506;-75
2022/03/05 10:17:01;;;;;;;17.85;9.05;;;8.00;57.00;;;;;;6209911;23;20484;-74
2022/03/05 10:19:29;;;;;;;15.05;9.70;;;8.00;58.30;;;;;;6203171;23;20087;-74
2022/03/05 10:22:08;;;;;;;18.40;9.85;;;8.10;57.20;;;;;;6205790;23;20008;-73
2022/03/05 10:24:36;;;;;;;20.30;10.25;;;8.20;58.70;;;;;;6203209;23;20428;-74
2022/03/05 10:27:04;;;;;;;15.43;9.38;;;8.20;57.20;;;;;;6208931;23;20075;-74
2022/03/05 10:29:35;;;;;;;18.02;10.10;;;8.30;57.70;;;;;;6205687;23;20610;-74
2022/03/05 10:32:10;;;;;;;19.17;10.23;;;8.30;55.90;;;;;;6207188;23;20008;-73
2022/03/05 10:34:41;;;;;;;21.85;10.10;;;8.20;56.20;;;;;;6205785;23;20004;-74
2022/03/05 10:37:07;;;;;;;19.55;10.43;;;8.30;56.40;;;;;;6206338;23;20012;-74
2022/03/05 10:39:33;;;;;;;19.73;10.43;;;8.30;56.70;;;;;;6205446;23;20008;-74
2022/03/05 10:41:59;;;;;;;19.10;10.65;;;8.40;56.40;;;;;;6205934;23;20615;-74
2022/03/05 10:44:25;;;;;;;19.42;10.50;;;8.40;57.20;;;;;;6205248;23;20004;-74
2022/03/05 10:46:59;;;;;;;19.52;10.60;;;8.40;57.30;;;;;;6208614;23;20000;-74
2022/03/05 10:49:36;;;;;;;20.98;11.18;;;8.40;56.90;;;;;;6202913;23;20020;-74
2022/03/05 10:52:02;;;;;;;18.88;10.25;;;8.50;58.20;;;;;;6205750;23;20052;-74
2022/03/05 10:54:29;;;;;;;20.77;11.35;;;8.40;57.30;;;;;;6209419;23;20009;-73
2022/03/05 10:57:19;;;;;;;19.48;9.93;;;8.40;56.60;;;;;;6209797;23;20302;-74
2022/03/05 10:59:50;;;;;;;20.85;11.45;;;8.40;56.90;;;;;;6211953;23;20438;-73
2022/03/05 11:02:18;;;;;;;19.92;11.32;;;8.60;57.00;;;;;;6211908;23;20329;-73
2022/03/05 11:04:45;;;;;;;23.25;11.13;;;8.60;55.40;;;;;;6210931;23;20445;-74
2022/03/05 11:07:12;;;;;;;19.65;10.07;;;8.60;55.50;;;;;;6210410;23;20545;-74
2022/03/05 11:09:39;;;;;;;22.98;10.80;;;8.80;55.80;;;;;;6210147;23;20009;-74
2022/03/05 11:12:09;;;;;;;24.33;11.45;;;9.00;56.30;;;;;;6209318;23;20541;-74
2022/03/05 11:14:39;;;;;;;23.00;11.70;;;9.10;55.10;;;;;;6211648;23;20005;-73
2022/03/05 11:17:05;;;;;;;27.88;11.70;;;9.20;56.40;;;;;;6211071;23;20008;-73
2022/03/05 11:19:31;;;;;;;21.50;10.63;;;9.30;55.80;;;;;;6210858;23;20420;-74
2022/03/05 11:21:58;;;;;;;24.00;12.18;;;9.30;55.60;;;;;;6211109;23;20004;-74
2022/03/05 11:24:24;;;;;;;24.40;12.77;;;9.30;54.60;;;;;;6211416;23;20005;-74
2022/03/05 11:26:53;;;;;;;21.48;12.57;;;9.40;54.20;;;;;;6211279;23;20004;-74
2022/03/05 11:29:24;;;;;;;23.55;11.70;;;9.30;53.40;;;;;;6211530;23;20425;-73
2022/03/05 11:31:50;;;;;;;23.92;12.00;;;9.40;53.90;;;;;;6211004;23;20016;-74
2022/03/05 11:34:18;;;;;;;23.13;12.02;;;9.50;55.10;;;;;;6210542;23;20011;-73
2022/03/05 11:36:46;;;;;;;22.63;11.68;;;9.50;54.60;;;;;;6211288;23;20131;-74
2022/03/05 11:39:15;;;;;;;23.17;12.23;;;9.60;54.70;;;;;;6214680;23;20024;-73
2022/03/05 11:42:05;;;;;;;21.73;11.45;;;9.60;52.40;;;;;;6214131;23;20087;-73
2022/03/05 11:44:36;;;;;;;26.42;11.50;;;9.60;52.60;;;;;;6214594;23;20014;-74
2022/03/05 11:47:20;;;;;;;26.45;10.98;;;9.70;53.90;;;;;;6214087;23;20058;-74
2022/03/05 11:50:08;;;;;;;24.92;11.98;;;9.80;54.80;;;;;;6211629;23;20005;-74
2022/03/05 11:52:40;;;;;;;20.92;10.35;;;9.90;54.00;;;;;;6208286;23;20016;-74
2022/03/05 11:55:16;;;;;;;18.80;10.45;;;10.00;55.30;;;;;;6208396;23;20009;-79
2022/03/05 11:57:51;;;;;;;21.33;11.60;;;10.10;54.20;;;;;;6210444;23;20005;-79
2022/03/05 12:00:25;;;;;;;22.38;12.05;;;10.10;53.10;;;;;;6205903;23;20001;-79
2022/03/05 12:02:55;;;;;;;19.23;10.85;;;10.10;53.10;;;;;;6210983;23;20001;-81
2022/03/05 12:05:33;;;;;;;19.98;11.77;;;10.00;53.40;;;;;;6212994;23;20000;-81
2022/03/05 12:08:03;;;;;;;22.92;11.73;;;9.90;52.30;;;;;;6211761;23;20011;-80
2022/03/05 12:10:29;;;;;;;24.13;11.75;;;9.80;53.40;;;;;;6212085;23;20076;-80
2022/03/05 12:13:01;;;;;;;19.70;11.38;;;9.80;53.50;;;;;;6213001;23;20471;-80
2022/03/05 12:15:42;;;;;;;24.25;12.40;;;10.00;54.90;;;;;;6213546;23;20083;-80
2022/03/05 12:18:14;;;;;;;23.73;12.85;;;10.10;52.60;;;;;;6211212;23;20306;-81
2022/03/05 12:20:42;;;;;;;;;;;10.10;52.10;;;;;;6212441;23;20005;-73
2022/03/05 12:23:10;;;;;;;21.45;11.90;;;10.10;51.50;;;;;;6210709;23;20389;-74
2022/03/05 12:25:39;;;;;;;30.70;12.57;;;10.20;52.30;;;;;;6210549;23;20024;-74
2022/03/05 12:28:26;;;;;;;29.80;12.77;;;10.40;53.60;;;;;;6211642;23;20039;-74
2022/03/05 12:30:58;;;;;;;26.23;12.85;;;10.40;52.80;;;;;;6208754;23;20448;-74
2022/03/05 12:33:24;;;;;;;28.98;13.45;;;10.40;53.00;;;;;;6211542;23;20052;-74
2022/03/05 12:35:50;;;;;;;27.95;12.02;;;10.40;52.00;;;;;;6210514;23;20005;-74
2022/03/05 12:38:21;;;;;;;19.35;11.23;;;10.50;52.60;;;;;;6209933;23;20023;-74
2022/03/05 12:40:48;;;;;;;21.57;12.33;;;10.50;52.80;;;;;;6210438;23;20505;-74